createdAt,value
2017-12-16T00:00:45.276Z,99272.83
2017-12-16T00:03:12.792Z,99273.66
2017-12-16T00:05:40.279Z,99269.45
2017-12-16T00:08:07.760Z,99271.14
2017-12-16T00:10:35.256Z,99276.19
2017-12-16T00:13:02.756Z,99282.91
2017-12-16T00:15:30.246Z,99286.69
2017-12-16T00:17:57.782Z,99290.49
2017-12-16T00:20:25.307Z,99287.12
2017-12-16T00:22:52.793Z,99289.63
2017-12-16T00:25:20.263Z,99295.12
2017-12-16T00:27:47.781Z,99299.75
2017-12-16T00:30:15.345Z,99298.50
2017-12-16T00:32:42.817Z,99300.16
2017-12-16T00:35:10.277Z,99295.97
2017-12-16T00:37:37.738Z,99292.58
2017-12-16T00:40:05.230Z,99292.59
2017-12-16T00:42:33.659Z,99293.03
2017-12-16T00:45:01.176Z,99295.56
2017-12-16T00:47:28.675Z,99299.33
2017-12-16T00:49:56.173Z,99304.78
2017-12-16T00:52:23.661Z,99308.19
2017-12-16T00:54:51.169Z,99315.78
2017-12-16T00:57:18.640Z,99318.28
2017-12-16T00:59:46.122Z,99313.25
2017-12-16T01:02:13.631Z,99314.50
2017-12-16T01:04:41.138Z,99316.65
2017-12-16T01:07:08.652Z,99322.50
2017-12-16T01:09:36.152Z,99328.41
2017-12-16T01:12:03.650Z,99330.91
2017-12-16T01:14:31.145Z,99334.27
2017-12-16T01:16:58.682Z,99335.53
2017-12-16T01:19:26.185Z,99338.92
2017-12-16T01:21:53.711Z,99344.80
2017-12-16T01:24:21.206Z,99343.95
2017-12-16T01:26:48.704Z,99352.80
2017-12-16T01:29:16.216Z,99356.19
2017-12-16T01:31:43.689Z,99358.68
2017-12-16T01:34:22.821Z,99357.02
2017-12-16T01:39:59.121Z,99366.75
2017-12-16T01:42:26.831Z,99373.03
2017-12-16T01:44:54.329Z,99375.56
2017-12-16T01:47:21.833Z,99374.73
2017-12-16T01:49:49.339Z,99369.27
2017-12-16T01:52:17.861Z,99371.38
2017-12-16T01:54:45.357Z,99368.42
2017-12-16T01:57:12.862Z,99370.14
2017-12-16T01:59:40.373Z,99368.45
2017-12-16T02:02:07.868Z,99368.89
2017-12-16T02:04:35.378Z,99378.14
2017-12-16T02:07:02.871Z,99376.86
2017-12-16T02:09:30.339Z,99372.64
2017-12-16T02:11:57.854Z,99379.38
2017-12-16T02:14:25.376Z,99380.63
2017-12-16T02:16:52.885Z,99378.11
2017-12-16T02:19:20.406Z,99379.36
2017-12-16T02:21:47.933Z,99378.94
2017-12-16T02:24:15.430Z,99379.34
2017-12-16T02:26:42.944Z,99382.73
2017-12-16T02:29:10.429Z,99384.02
2017-12-16T02:31:37.950Z,99379.81
2017-12-16T02:34:05.439Z,99379.38
2017-12-16T02:36:32.923Z,99375.15
2017-12-16T02:39:00.454Z,99374.31
2017-12-16T02:41:28.729Z,99374.77
2017-12-16T02:43:56.234Z,99381.05
2017-12-16T02:46:23.762Z,99380.66
2017-12-16T02:48:51.268Z,99379.35
2017-12-16T02:51:18.767Z,99384.00
2017-12-16T02:53:46.304Z,99380.22
2017-12-16T02:56:13.812Z,99373.48
2017-12-16T02:58:41.336Z,99379.38
2017-12-16T03:01:08.820Z,99378.54
2017-12-16T03:03:36.316Z,99381.47
2017-12-16T03:06:03.801Z,99383.16
2017-12-16T03:08:31.300Z,99381.05
2017-12-16T03:10:58.779Z,99386.95
2017-12-16T03:13:26.260Z,99390.73
2017-12-16T03:15:53.756Z,99386.93
2017-12-16T03:18:21.329Z,99392.41
2017-12-16T03:20:48.846Z,99390.72
2017-12-16T03:23:16.319Z,99394.08
2017-12-16T03:25:43.822Z,99395.35
2017-12-16T03:28:11.290Z,99397.88
2017-12-16T03:30:38.787Z,99403.34
2017-12-16T03:33:06.278Z,99416.38
2017-12-16T03:35:33.762Z,99418.47
2017-12-16T03:38:01.268Z,99420.59
2017-12-16T03:40:28.781Z,99421.02
2017-12-16T03:42:56.276Z,99428.99
2017-12-16T03:45:23.776Z,99425.20
2017-12-16T03:47:51.256Z,99425.20
2017-12-16T03:50:18.728Z,99425.62
2017-12-16T03:52:46.198Z,99435.31
2017-12-16T03:55:13.669Z,99424.34
2017-12-16T03:57:41.155Z,99432.77
2017-12-16T04:00:08.634Z,99431.92
2017-12-16T04:02:36.144Z,99434.89
2017-12-16T04:05:03.613Z,99442.86
2017-12-16T04:07:31.112Z,99444.13
2017-12-16T04:09:58.612Z,99441.61
2017-12-16T04:12:26.176Z,99447.52
2017-12-16T04:14:53.609Z,99447.51
2017-12-16T04:17:21.097Z,99447.92
2017-12-16T04:19:48.605Z,99444.97
2017-12-16T04:22:16.080Z,99442.47
2017-12-16T04:24:43.646Z,99441.59
2017-12-16T04:27:11.134Z,99447.48
2017-12-16T04:29:38.660Z,99441.61
2017-12-16T04:32:06.185Z,99441.62
2017-12-16T04:34:33.664Z,99436.55
2017-12-16T04:37:01.167Z,99442.47
2017-12-16T04:39:28.666Z,99443.30
2017-12-16T04:41:56.149Z,99446.27
2017-12-16T04:44:23.646Z,99446.69
2017-12-16T04:46:51.153Z,99451.33
2017-12-16T04:49:18.648Z,99453.84
2017-12-16T04:51:46.170Z,99450.91
2017-12-16T04:54:13.687Z,99453.00
2017-12-16T04:56:41.190Z,99450.48
2017-12-16T04:59:08.669Z,99453.42
2017-12-16T05:01:36.149Z,99451.31
2017-12-16T05:04:03.707Z,99450.08
2017-12-16T05:06:31.233Z,99453.86
2017-12-16T05:08:58.744Z,99455.95
2017-12-16T05:11:26.248Z,99455.11
2017-12-16T05:13:53.726Z,99457.66
2017-12-16T05:16:21.202Z,99459.74
2017-12-16T05:18:48.682Z,99463.97
2017-12-16T05:21:16.178Z,99469.43
2017-12-16T05:23:43.737Z,99469.45
2017-12-16T05:26:11.280Z,99468.59
2017-12-16T05:28:38.797Z,99469.00
2017-12-16T05:31:06.424Z,99467.31
2017-12-16T05:33:33.943Z,99470.28
2017-12-16T05:36:01.440Z,99468.17
2017-12-16T05:38:28.960Z,99471.09
2017-12-16T05:40:56.516Z,99469.45
2017-12-16T05:43:24.029Z,99474.91
2017-12-16T05:45:51.624Z,99477.00
2017-12-16T05:48:19.139Z,99485.02
2017-12-16T05:50:46.718Z,99487.53
2017-12-16T05:53:14.226Z,99486.70
2017-12-16T05:55:41.778Z,99485.42
2017-12-16T05:58:09.253Z,99488.38
2017-12-16T06:00:36.718Z,99487.12
2017-12-16T06:03:04.177Z,99480.78
2017-12-16T06:05:31.658Z,99479.95
2017-12-16T06:07:59.149Z,99485.00
2017-12-16T06:10:26.623Z,99484.16
2017-12-16T06:12:54.116Z,99487.13
2017-12-16T06:15:21.612Z,99483.33
2017-12-16T06:17:49.115Z,99482.91
2017-12-16T06:20:16.582Z,99485.41
2017-12-16T06:22:44.089Z,99492.16
2017-12-16T06:25:11.564Z,99491.73
2017-12-16T06:27:39.038Z,99493.00
2017-12-16T06:30:06.529Z,99497.23
2017-12-16T06:32:34.042Z,99494.69
2017-12-16T06:35:01.533Z,99494.70
2017-12-16T06:37:29.027Z,99496.80
2017-12-16T06:39:56.530Z,99500.17
2017-12-16T06:42:26.918Z,99503.11
2017-12-16T06:44:54.417Z,99509.02
2017-12-16T06:47:21.921Z,99505.64
2017-12-16T06:49:49.414Z,99510.70
2017-12-16T06:52:16.931Z,99507.31
2017-12-16T06:54:44.410Z,99516.59
2017-12-16T06:57:11.913Z,99519.13
2017-12-16T06:59:39.440Z,99522.46
2017-12-16T07:02:06.923Z,99527.96
2017-12-16T07:04:35.338Z,99530.91
2017-12-16T07:07:02.815Z,99533.00
2017-12-16T07:09:30.304Z,99533.42
2017-12-16T07:11:57.783Z,99536.37
2017-12-16T07:14:25.292Z,99540.17
2017-12-16T07:16:52.781Z,99544.81
2017-12-16T07:19:20.341Z,99548.17
2017-12-16T07:21:47.864Z,99554.90
2017-12-16T07:24:15.341Z,99561.63
2017-12-16T07:26:42.826Z,99564.16
2017-12-16T07:29:10.469Z,99567.97
2017-12-16T07:31:38.137Z,99572.16
2017-12-16T07:34:05.726Z,99584.80
2017-12-16T07:36:33.255Z,99578.92
2017-12-16T07:39:00.758Z,99584.80
2017-12-16T07:41:28.255Z,99586.06
2017-12-16T07:43:55.745Z,99586.50
2017-12-16T07:46:23.272Z,99597.02
2017-12-16T07:48:50.755Z,99597.44
2017-12-16T07:51:18.383Z,99603.75
2017-12-16T07:53:46.668Z,99605.44
2017-12-16T07:56:14.187Z,99613.02
2017-12-16T07:58:41.695Z,99611.76
2017-12-16T08:01:09.243Z,99612.20
2017-12-16T08:03:36.743Z,99621.86
2017-12-16T08:06:04.233Z,99621.88
2017-12-16T08:08:31.736Z,99625.67
2017-12-16T08:10:59.330Z,99630.70
2017-12-16T08:13:26.871Z,99626.92
2017-12-16T08:15:54.367Z,99629.86
2017-12-16T08:18:21.841Z,99635.78
2017-12-16T08:20:49.353Z,99641.25
2017-12-16T08:23:16.862Z,99642.49
2017-12-16T08:25:44.475Z,99642.92
2017-12-16T08:28:11.979Z,99642.09
2017-12-16T08:30:39.500Z,99642.92
2017-12-16T08:33:06.968Z,99642.09
2017-12-16T08:35:34.614Z,99649.67
2017-12-16T08:38:02.217Z,99651.37
2017-12-16T08:40:30.185Z,99656.84
2017-12-16T08:42:57.825Z,99661.47
2017-12-16T08:45:25.338Z,99658.52
2017-12-16T08:47:52.812Z,99661.06
2017-12-16T08:50:20.318Z,99669.47
2017-12-16T08:52:47.822Z,99676.22
2017-12-16T08:55:15.952Z,99674.53
2017-12-16T08:57:43.483Z,99673.68
2017-12-16T09:00:10.970Z,99673.67
2017-12-16T09:02:38.496Z,99684.66
2017-12-16T09:05:06.677Z,99689.27
2017-12-16T09:07:34.162Z,99688.02
2017-12-16T09:10:01.689Z,99696.87
2017-12-16T09:12:29.162Z,99702.78
2017-12-16T09:14:57.093Z,99707.42
2017-12-16T09:17:24.633Z,99710.36
2017-12-16T09:19:54.667Z,99712.45
2017-12-16T09:22:22.214Z,99713.73
2017-12-16T09:24:49.748Z,99718.77
2017-12-16T09:27:17.266Z,99718.81
2017-12-16T09:29:44.756Z,99720.05
2017-12-16T09:32:12.250Z,99720.06
2017-12-16T09:34:39.782Z,99720.91
2017-12-16T09:37:07.755Z,99728.06
2017-12-16T09:39:35.298Z,99732.30
2017-12-16T09:42:03.266Z,99731.03
2017-12-16T09:44:31.961Z,99731.00
2017-12-16T09:46:59.445Z,99733.11
2017-12-16T09:49:27.412Z,99734.40
2017-12-16T09:51:54.986Z,99736.92
2017-12-16T09:54:22.874Z,99736.48
2017-12-16T09:56:50.411Z,99739.45
2017-12-16T09:59:17.888Z,99735.63
2017-12-16T10:01:45.361Z,99737.77
2017-12-16T10:04:12.899Z,99736.05
2017-12-16T10:06:40.382Z,99741.97
2017-12-16T10:09:07.902Z,99733.96
2017-12-16T10:11:35.365Z,99732.23
2017-12-16T10:14:02.854Z,99737.68
2017-12-16T10:16:30.354Z,99753.72
2017-12-16T10:18:57.825Z,99746.55
2017-12-16T10:21:25.299Z,99750.36
2017-12-16T10:23:52.798Z,99749.52
2017-12-16T10:26:20.296Z,99763.03
2017-12-16T10:28:47.765Z,99762.63
2017-12-16T10:31:15.281Z,99758.39
2017-12-16T10:33:42.762Z,99764.75
2017-12-16T10:36:10.266Z,99766.84
2017-12-16T10:38:39.776Z,99772.33
2017-12-16T10:41:07.357Z,99780.77
2017-12-16T10:43:35.335Z,99776.55
2017-12-16T10:46:02.814Z,99778.66
2017-12-16T10:48:30.320Z,99779.48
2017-12-16T10:50:57.796Z,99785.39
2017-12-16T10:53:25.301Z,99782.45
2017-12-16T10:55:52.785Z,99784.14
2017-12-16T10:58:20.276Z,99781.19
2017-12-16T11:00:53.281Z,99784.99
2017-12-16T11:03:20.784Z,99787.92
2017-12-16T11:05:48.256Z,99785.80
2017-12-16T11:08:15.730Z,99779.91
2017-12-16T11:10:43.220Z,99784.97
2017-12-16T11:13:10.709Z,99792.16
2017-12-16T11:15:38.204Z,99790.47
2017-12-16T11:18:05.677Z,99790.05
2017-12-16T11:20:33.172Z,99797.22
2017-12-16T11:23:00.671Z,99796.36
2017-12-16T11:25:28.142Z,99796.78
2017-12-16T11:27:55.632Z,99796.77
2017-12-16T11:30:23.126Z,99795.08
2017-12-16T11:32:50.617Z,99799.31
2017-12-16T11:35:18.466Z,99809.03
2017-12-16T11:37:45.946Z,99808.59
2017-12-16T11:40:13.512Z,99812.83
2017-12-16T11:42:41.022Z,99809.44
2017-12-16T11:45:08.527Z,99810.28
2017-12-16T11:47:36.059Z,99814.08
2017-12-16T11:50:03.537Z,99814.08
2017-12-16T11:52:31.033Z,99811.56
2017-12-16T11:54:58.793Z,99812.00
2017-12-16T11:57:26.285Z,99814.08
2017-12-16T11:59:54.245Z,99811.55
2017-12-16T12:02:21.745Z,99807.32
2017-12-16T12:04:49.272Z,99814.50
2017-12-16T12:07:16.750Z,99803.52
2017-12-16T12:09:44.253Z,99815.77
2017-12-16T12:12:12.214Z,99819.14
2017-12-16T12:14:39.707Z,99820.81
2017-12-16T12:17:07.186Z,99821.67
2017-12-16T12:19:34.668Z,99825.89
2017-12-16T12:22:02.157Z,99825.87
2017-12-16T12:24:29.656Z,99826.73
2017-12-16T12:26:57.125Z,99830.95
2017-12-16T12:29:24.639Z,99832.22
2017-12-16T12:31:52.122Z,99826.73
2017-12-16T12:34:19.620Z,99832.63
2017-12-16T12:36:47.094Z,99833.46
2017-12-16T12:39:14.587Z,99830.06
2017-12-16T12:41:42.085Z,99823.73
2017-12-16T12:44:10.229Z,99822.88
2017-12-16T12:46:37.722Z,99825.85
2017-12-16T12:49:05.206Z,99829.66
2017-12-16T12:51:32.666Z,99829.66
2017-12-16T12:54:00.199Z,99833.89
2017-12-16T12:56:27.662Z,99838.14
2017-12-16T12:58:55.156Z,99833.89
2017-12-16T13:01:22.639Z,99833.48
2017-12-16T13:03:50.134Z,99838.12
2017-12-16T13:06:17.610Z,99835.99
2017-12-16T13:08:45.094Z,99843.17
2017-12-16T13:11:12.590Z,99835.16
2017-12-16T13:13:40.062Z,99834.75
2017-12-16T13:16:07.549Z,99832.63
2017-12-16T13:18:35.012Z,99838.11
2017-12-16T13:21:02.503Z,99837.69
2017-12-16T13:23:29.987Z,99843.61
2017-12-16T13:25:57.463Z,99846.97
2017-12-16T13:28:25.027Z,99844.86
2017-12-16T13:30:52.521Z,99846.96
2017-12-16T13:33:20.006Z,99847.39
2017-12-16T13:35:47.504Z,99853.30
2017-12-16T13:38:15.010Z,99850.33
2017-12-16T13:40:42.535Z,99852.46
2017-12-16T13:43:10.034Z,99854.13
2017-12-16T13:45:37.536Z,99853.73
2017-12-16T13:48:05.006Z,99870.63
2017-12-16T13:50:32.511Z,99866.83
2017-12-16T13:53:00.052Z,99876.11
2017-12-16T13:55:28.484Z,99876.94
2017-12-16T13:57:56.011Z,99882.03
2017-12-16T14:00:23.591Z,99880.74
2017-12-16T14:02:51.101Z,99879.47
2017-12-16T14:05:18.604Z,99888.77
2017-12-16T14:07:46.197Z,99893.00
2017-12-16T14:10:13.749Z,99891.30
2017-12-16T14:12:41.236Z,99898.47
2017-12-16T14:15:08.733Z,99894.67
2017-12-16T14:17:36.435Z,99898.89
2017-12-16T14:20:03.963Z,99903.13
2017-12-16T14:22:31.536Z,99905.64
2017-12-16T14:24:59.014Z,99914.52
2017-12-16T14:27:26.605Z,99915.77
2017-12-16T14:29:54.087Z,99922.11
2017-12-16T14:32:21.713Z,99931.80
2017-12-16T14:34:49.338Z,99936.03
2017-12-16T14:37:16.832Z,99940.26
2017-12-16T14:39:44.347Z,99944.48
2017-12-16T14:42:12.508Z,99945.74
2017-12-16T14:44:40.196Z,99944.47
2017-12-16T14:47:07.740Z,99952.52
2017-12-16T14:49:35.228Z,99952.07
2017-12-16T14:52:02.749Z,99953.33
2017-12-16T14:54:30.227Z,99959.23
2017-12-16T14:56:57.769Z,99959.66
2017-12-16T14:59:25.353Z,99966.00
2017-12-16T15:01:52.836Z,99973.19
2017-12-16T15:04:20.359Z,99973.20
2017-12-16T15:06:47.985Z,99972.75
2017-12-16T15:09:15.476Z,99973.19
2017-12-16T15:11:42.988Z,99977.39
2017-12-16T15:14:10.495Z,99974.45
2017-12-16T15:16:38.104Z,99978.69
2017-12-16T15:19:05.691Z,99983.31
2017-12-16T15:21:33.163Z,99985.85
2017-12-16T15:24:00.683Z,99987.95
2017-12-16T15:26:28.181Z,99993.01
2017-12-16T15:28:55.797Z,99996.80
2017-12-16T15:31:23.361Z,100002.73
2017-12-16T15:33:50.866Z,100005.25
2017-12-16T15:36:18.473Z,100013.69
2017-12-16T15:38:46.001Z,100017.05
2017-12-16T15:41:13.525Z,100014.53
2017-12-16T15:43:41.008Z,100017.89
2017-12-16T15:46:08.496Z,100014.92
2017-12-16T15:48:36.000Z,100025.92
2017-12-16T15:51:03.470Z,100020.42
2017-12-16T15:53:31.017Z,100020.44
2017-12-16T15:55:59.319Z,100023.37
2017-12-16T15:58:27.661Z,100028.44
2017-12-16T16:00:55.234Z,100028.02
2017-12-16T16:03:22.718Z,100032.67
2017-12-16T16:05:50.229Z,100030.97
2017-12-16T16:08:17.710Z,100034.77
2017-12-16T16:10:45.273Z,100041.09
2017-12-16T16:13:12.767Z,100043.63
2017-12-16T16:15:40.285Z,100053.73
2017-12-16T16:18:07.820Z,100049.12
2017-12-16T16:20:35.509Z,100052.04
2017-12-16T16:23:03.010Z,100055.42
2017-12-16T16:25:30.592Z,100068.50
2017-12-16T16:27:58.111Z,100067.22
2017-12-16T16:30:25.628Z,100069.77
2017-12-16T16:32:53.115Z,100071.03
2017-12-16T16:35:20.582Z,100074.79
2017-12-16T16:37:48.044Z,100079.02
2017-12-16T16:40:15.645Z,100076.47
2017-12-16T16:42:43.165Z,100083.63
2017-12-16T16:45:10.688Z,100083.23
2017-12-16T16:47:38.235Z,100092.06
2017-12-16T16:50:05.801Z,100094.61
2017-12-16T16:52:33.373Z,100104.31
2017-12-16T16:55:00.860Z,100104.75
2017-12-16T16:57:28.392Z,100104.36
2017-12-16T16:59:55.866Z,100099.30
2017-12-16T17:02:23.390Z,100109.88
2017-12-16T17:04:50.860Z,100103.96
2017-12-16T17:07:18.344Z,100105.61
2017-12-16T17:09:47.596Z,100107.72
2017-12-16T17:12:15.058Z,100111.53
2017-12-16T17:14:43.097Z,100118.29
2017-12-16T17:17:10.576Z,100119.54
2017-12-16T17:19:38.801Z,100123.35
2017-12-16T17:22:06.310Z,100130.12
2017-12-16T17:24:33.895Z,100123.73
2017-12-16T17:27:01.419Z,100125.38
2017-12-16T17:29:28.935Z,100125.80
2017-12-16T17:31:56.468Z,100132.95
2017-12-16T17:34:23.978Z,100136.35
2017-12-16T17:36:51.476Z,100136.34
2017-12-16T17:39:18.928Z,100140.97
2017-12-16T17:41:46.506Z,100138.02
2017-12-16T17:44:14.016Z,100142.27
2017-12-16T17:46:41.553Z,100147.73
2017-12-16T17:49:09.120Z,100149.85
2017-12-16T17:51:37.102Z,100147.74
2017-12-16T17:54:04.588Z,100152.37
2017-12-16T17:56:33.304Z,100156.19
2017-12-16T17:59:00.982Z,100156.17
2017-12-16T18:01:29.203Z,100154.05
2017-12-16T18:03:56.738Z,100154.42
2017-12-16T18:06:24.706Z,100160.78
2017-12-16T18:08:52.265Z,100160.31
2017-12-16T18:11:19.826Z,100163.67
2017-12-16T18:13:47.311Z,100164.95
2017-12-16T18:16:15.592Z,100176.31
2017-12-16T18:18:43.873Z,100172.13
2017-12-16T18:21:11.354Z,100180.13
2017-12-16T18:23:38.823Z,100183.51
2017-12-16T18:26:06.344Z,100180.13
2017-12-16T18:28:33.827Z,100187.70
2017-12-16T18:31:01.297Z,100192.38
2017-12-16T18:33:28.823Z,100194.09
2017-12-16T18:35:56.313Z,100195.77
2017-12-16T18:38:23.802Z,100195.80
2017-12-16T18:40:51.351Z,100195.29
2017-12-16T18:43:18.848Z,100200.75
2017-12-16T18:45:46.935Z,100202.42
2017-12-16T18:48:15.441Z,100203.63
2017-12-16T18:50:43.560Z,100198.92
2017-12-16T18:53:11.774Z,100206.51
2017-12-16T18:55:39.293Z,100205.71
2017-12-16T18:58:06.797Z,100210.34
2017-12-16T19:00:34.327Z,100215.01
2017-12-16T19:03:01.818Z,100214.48
2017-12-16T19:05:29.306Z,100214.95
2017-12-16T19:07:56.808Z,100219.20
2017-12-16T19:10:24.571Z,100219.60
2017-12-16T19:12:52.122Z,100230.09
2017-12-16T19:15:19.662Z,100235.61
2017-12-16T19:17:47.204Z,100235.20
2017-12-16T19:20:17.103Z,100234.30
2017-12-16T19:22:44.625Z,100241.97
2017-12-16T19:25:12.118Z,100239.02
2017-12-16T19:27:39.621Z,100242.80
2017-12-16T19:30:07.152Z,100252.53
2017-12-16T19:32:34.674Z,100253.75
2017-12-16T19:35:02.200Z,100253.33
2017-12-16T19:37:30.536Z,100250.86
2017-12-16T19:39:58.040Z,100251.69
2017-12-16T19:42:25.546Z,100250.48
2017-12-16T19:44:53.551Z,100260.58
2017-12-16T19:47:21.049Z,100260.16
2017-12-16T19:49:48.589Z,100261.00
2017-12-16T19:52:16.875Z,100263.13
2017-12-16T19:54:44.444Z,100269.91
2017-12-16T19:57:11.920Z,100268.23
2017-12-16T19:59:39.478Z,100278.80
2017-12-16T20:02:06.996Z,100276.23
2017-12-16T20:04:34.636Z,100275.01
2017-12-16T20:07:03.128Z,100278.81
2017-12-16T20:09:30.638Z,100277.54
2017-12-16T20:11:58.137Z,100277.06
2017-12-16T20:14:26.223Z,100283.00
2017-12-16T20:16:53.729Z,100283.42
2017-12-16T20:19:21.276Z,100281.70
2017-12-16T20:21:48.811Z,100281.33
2017-12-16T20:24:16.290Z,100286.38
2017-12-16T20:26:43.863Z,100283.84
2017-12-16T20:29:11.358Z,100291.44
2017-12-16T20:31:38.831Z,100294.36
2017-12-16T20:34:06.338Z,100285.55
2017-12-16T20:36:33.839Z,100291.45
2017-12-16T20:39:01.604Z,100295.65
2017-12-16T20:41:29.452Z,100293.90
2017-12-16T20:43:56.918Z,100293.97
2017-12-16T20:46:24.541Z,100296.07
2017-12-16T20:48:52.084Z,100293.08
2017-12-16T20:51:19.597Z,100300.65
2017-12-16T20:53:47.049Z,100303.20
2017-12-16T20:56:14.539Z,100304.03
2017-12-16T20:58:41.997Z,100313.72
2017-12-16T21:01:12.536Z,100309.05
2017-12-16T21:03:40.040Z,100319.55
2017-12-16T21:06:07.546Z,100316.58
2017-12-16T21:08:35.301Z,100321.97
2017-12-16T21:11:03.390Z,100332.97
2017-12-16T21:13:30.916Z,100326.25
2017-12-16T21:15:59.167Z,100332.92
2017-12-16T21:18:26.808Z,100328.34
2017-12-16T21:20:54.590Z,100337.56
2017-12-16T21:23:22.413Z,100332.16
2017-12-16T21:25:50.061Z,100339.77
2017-12-16T21:28:17.655Z,100337.20
2017-12-16T21:30:45.145Z,100336.78
2017-12-16T21:33:12.644Z,100337.19
2017-12-16T21:35:40.634Z,100340.14
2017-12-16T21:38:08.158Z,100347.33
2017-12-16T21:40:35.994Z,100349.04
2017-12-16T21:43:03.517Z,100350.21
2017-12-16T21:45:31.037Z,100356.98
2017-12-16T21:47:58.570Z,100359.16
2017-12-16T21:50:26.064Z,100366.30
2017-12-16T21:52:55.016Z,100366.69
2017-12-16T21:55:22.813Z,100367.12
2017-12-16T21:57:50.293Z,100369.70
2017-12-16T22:00:17.808Z,100381.08
2017-12-16T22:02:45.299Z,100377.23
2017-12-16T22:05:13.011Z,100380.66
2017-12-16T22:07:40.482Z,100376.05
2017-12-16T22:10:07.991Z,100377.72
2017-12-16T22:12:35.875Z,100383.20
2017-12-16T22:15:03.386Z,100377.31
2017-12-16T22:17:30.884Z,100386.19
2017-12-16T22:19:58.936Z,100384.47
2017-12-16T22:22:26.417Z,100391.25
2017-12-16T22:24:53.915Z,100397.59
2017-12-16T22:27:21.460Z,100397.14
2017-12-16T22:29:48.948Z,100393.70
2017-12-16T22:32:16.597Z,100398.76
2017-12-16T22:34:44.089Z,100402.23
2017-12-16T22:37:11.644Z,100402.61
2017-12-16T22:39:39.214Z,100400.42
2017-12-16T22:42:07.615Z,100409.38
2017-12-16T22:44:35.201Z,100407.71
2017-12-16T22:47:02.751Z,100409.27
2017-12-16T22:49:30.245Z,100412.23
2017-12-16T22:51:57.714Z,100409.64
2017-12-16T22:54:25.185Z,100415.20
2017-12-16T22:56:52.849Z,100425.32
2017-12-16T22:59:20.381Z,100416.91
2017-12-16T23:01:48.387Z,100419.05
2017-12-16T23:04:15.876Z,100420.19
2017-12-16T23:06:43.380Z,100426.11
2017-12-16T23:09:10.885Z,100428.67
2017-12-16T23:11:38.366Z,100421.45
2017-12-16T23:14:05.859Z,100427.64
2017-12-16T23:16:33.983Z,100436.86
2017-12-16T23:19:02.586Z,100436.44
2017-12-16T23:21:30.888Z,100438.10
2017-12-16T23:23:58.369Z,100436.44
2017-12-16T23:26:25.839Z,100442.34
2017-12-16T23:28:53.313Z,100444.76
2017-12-16T23:31:20.794Z,100449.51
2017-12-16T23:33:48.267Z,100445.71
2017-12-16T23:36:16.490Z,100448.61
2017-12-16T23:38:44.026Z,100449.09
2017-12-16T23:41:11.534Z,100443.19
2017-12-16T23:43:39.208Z,100449.98
2017-12-16T23:46:06.753Z,100450.80
2017-12-16T23:48:34.276Z,100457.63
2017-12-16T23:51:01.750Z,100451.16
2017-12-16T23:53:29.226Z,100461.73
2017-12-16T23:55:56.717Z,100454.51
2017-12-16T23:58:24.223Z,100454.98
